createdAt,value
2023-11-06T00:00:25.472Z,48.71
2023-11-06T00:02:59.226Z,48.65
2023-11-06T00:05:32.435Z,48.78
2023-11-06T00:08:05.496Z,48.92
2023-11-06T00:10:39.257Z,48.74
2023-11-06T00:13:12.405Z,48.77
2023-11-06T00:15:45.182Z,48.68
2023-11-06T00:18:18.293Z,48.62
2023-11-06T00:20:51.352Z,48.72
2023-11-06T00:23:24.674Z,48.74
2023-11-06T00:25:58.558Z,48.84
2023-11-06T00:28:32.326Z,48.91
2023-11-06T00:31:05.630Z,48.73
2023-11-06T00:33:39.437Z,48.79
2023-11-06T00:36:12.823Z,48.76
2023-11-06T00:38:46.639Z,48.74
2023-11-06T00:41:20.636Z,48.84
2023-11-06T00:43:54.100Z,48.68
2023-11-06T00:46:27.482Z,48.74
2023-11-06T00:49:01.651Z,48.71
2023-11-06T00:51:35.207Z,48.65
2023-11-06T00:54:08.495Z,48.55
2023-11-06T00:56:42.493Z,48.45
2023-11-06T00:59:15.765Z,48.45
2023-11-06T01:01:49.420Z,48.47
2023-11-06T01:04:22.481Z,48.64
2023-11-06T01:06:55.405Z,48.76
2023-11-06T01:09:28.327Z,48.42
2023-11-06T01:12:01.494Z,48.59
2023-11-06T01:14:34.390Z,48.74
2023-11-06T01:17:07.582Z,48.63
2023-11-06T01:19:40.658Z,48.45
2023-11-06T01:22:14.301Z,48.52
2023-11-06T01:24:47.284Z,48.54
2023-11-06T01:27:20.578Z,48.53
2023-11-06T01:29:54.447Z,48.45
2023-11-06T01:32:27.422Z,48.35
2023-11-06T01:35:00.620Z,48.51
2023-11-06T01:37:34.447Z,48.42
2023-11-06T01:40:07.660Z,48.47
2023-11-06T01:42:43.447Z,48.47
2023-11-06T01:45:14.652Z,48.42
2023-11-06T01:47:48.223Z,48.45
2023-11-06T01:50:21.656Z,48.14
2023-11-06T01:52:55.475Z,48.05
2023-11-06T01:55:28.606Z,48.08
2023-11-06T01:58:02.401Z,47.81
2023-11-06T02:00:35.201Z,47.94
2023-11-06T02:03:08.753Z,47.94
2023-11-06T02:05:42.568Z,47.77
2023-11-06T02:08:15.790Z,47.97
2023-11-06T02:10:49.625Z,47.89
2023-11-06T02:13:22.611Z,48.02
2023-11-06T02:15:55.203Z,48.02
2023-11-06T02:18:28.567Z,47.94
2023-11-06T02:21:04.110Z,47.77
2023-11-06T02:23:35.198Z,47.81
2023-11-06T02:26:08.723Z,47.79
2023-11-06T02:28:42.667Z,47.96
2023-11-06T02:31:16.606Z,47.98
2023-11-06T02:33:49.484Z,47.86
2023-11-06T02:36:22.575Z,47.82
2023-11-06T02:38:55.194Z,47.89
2023-11-06T02:41:28.810Z,47.89
2023-11-06T02:44:02.642Z,47.50
2023-11-06T02:46:35.451Z,47.50
2023-11-06T02:49:08.396Z,47.60
2023-11-06T02:51:41.524Z,47.61
2023-11-06T02:54:14.440Z,47.83
2023-11-06T02:56:47.749Z,47.84
2023-11-06T02:59:21.433Z,47.99
2023-11-06T03:01:54.266Z,47.85
2023-11-06T03:04:27.604Z,47.70
2023-11-06T03:07:00.570Z,47.85
2023-11-06T03:09:33.727Z,47.83
2023-11-06T03:12:07.672Z,47.93
2023-11-06T03:14:41.278Z,48.08
2023-11-06T03:17:14.529Z,48.10
2023-11-06T03:19:47.413Z,48.09
2023-11-06T03:22:20.710Z,48.12
2023-11-06T03:24:54.562Z,48.05
2023-11-06T03:27:27.704Z,47.94
2023-11-06T03:30:01.643Z,48.10
2023-11-06T03:32:34.774Z,48.14
2023-11-06T03:35:08.804Z,48.03
2023-11-06T03:37:42.584Z,48.14
2023-11-06T03:40:15.683Z,47.94
2023-11-06T03:42:48.739Z,48.09
2023-11-06T03:45:22.945Z,48.12
2023-11-06T03:47:56.324Z,48.03
2023-11-06T03:50:29.797Z,48.13
2023-11-06T03:53:03.712Z,48.18
2023-11-06T03:55:36.569Z,48.16
2023-11-06T03:58:09.816Z,48.38
2023-11-06T04:00:43.646Z,48.27
2023-11-06T04:03:16.388Z,48.22
2023-11-06T04:05:49.796Z,48.44
2023-11-06T04:08:23.851Z,48.49
2023-11-06T04:10:57.693Z,48.44
2023-11-06T04:13:30.733Z,48.46
2023-11-06T04:16:03.685Z,48.48
2023-11-06T04:18:36.775Z,48.43
2023-11-06T04:21:09.879Z,48.66
2023-11-06T04:23:43.641Z,48.56
2023-11-06T04:26:16.843Z,48.78
2023-11-06T04:28:49.877Z,48.82
2023-11-06T04:31:23.744Z,48.81
2023-11-06T04:33:56.581Z,48.61
2023-11-06T04:36:29.603Z,48.52
2023-11-06T04:39:02.622Z,48.62
2023-11-06T04:41:35.554Z,48.60
2023-11-06T04:44:08.857Z,48.74
2023-11-06T04:46:41.473Z,48.50
2023-11-06T04:49:14.759Z,48.58
2023-11-06T04:51:50.145Z,48.50
2023-11-06T04:54:20.931Z,48.68
2023-11-06T04:56:54.666Z,48.62
2023-11-06T04:59:27.779Z,48.66
2023-11-06T05:02:00.670Z,48.74
2023-11-06T05:04:33.955Z,48.52
2023-11-06T05:07:07.774Z,48.86
2023-11-06T05:09:40.400Z,48.68
2023-11-06T05:12:13.552Z,48.67
2023-11-06T05:14:46.420Z,48.73
2023-11-06T05:17:19.689Z,48.59
2023-11-06T05:19:52.575Z,48.79
2023-11-06T05:22:25.683Z,48.69
2023-11-06T05:24:58.449Z,48.71
2023-11-06T05:27:31.634Z,48.80
2023-11-06T05:30:04.478Z,48.60
2023-11-06T05:32:38.022Z,48.69
2023-11-06T05:35:11.932Z,48.58
2023-11-06T05:37:45.469Z,48.53
2023-11-06T05:40:18.871Z,48.55
2023-11-06T05:42:54.918Z,48.55
2023-11-06T05:45:24.908Z,48.57
2023-11-06T05:47:58.889Z,48.54
2023-11-06T05:50:31.674Z,48.58
2023-11-06T05:53:04.508Z,48.46
2023-11-06T05:55:37.906Z,48.31
2023-11-06T05:58:10.636Z,48.42
2023-11-06T06:00:43.786Z,48.55
2023-11-06T06:03:16.605Z,48.56
2023-11-06T06:05:50.054Z,48.50
2023-11-06T06:08:22.967Z,48.38
2023-11-06T06:10:56.054Z,48.32
2023-11-06T06:13:29.953Z,48.32
2023-11-06T06:16:03.721Z,48.22
2023-11-06T06:18:36.655Z,48.36
2023-11-06T06:21:09.963Z,48.45
2023-11-06T06:23:43.565Z,48.38
2023-11-06T06:26:16.635Z,48.63
2023-11-06T06:28:49.827Z,48.59
2023-11-06T06:31:22.755Z,48.27
2023-11-06T06:33:56.061Z,48.46
2023-11-06T06:36:29.967Z,47.31
2023-11-06T06:39:02.892Z,47.38
2023-11-06T06:41:35.838Z,47.31
2023-11-06T06:44:08.684Z,47.21
2023-11-06T06:46:42.018Z,47.33
2023-11-06T06:49:16.208Z,47.22
2023-11-06T06:51:49.888Z,47.08
2023-11-06T06:54:22.885Z,46.69
2023-11-06T06:56:56.129Z,47.29
2023-11-06T06:59:31.052Z,47.53
2023-11-06T07:02:04.895Z,47.77
2023-11-06T07:04:38.103Z,47.92
2023-11-06T07:07:11.834Z,48.03
2023-11-06T07:09:44.729Z,48.20
2023-11-06T07:12:18.167Z,48.29
2023-11-06T07:14:51.930Z,48.36
2023-11-06T07:17:25.113Z,48.32
2023-11-06T07:19:59.053Z,48.40
2023-11-06T07:22:32.088Z,48.57
2023-11-06T07:25:05.909Z,48.61
2023-11-06T07:27:38.819Z,48.63
2023-11-06T07:30:11.762Z,48.64
2023-11-06T07:32:45.211Z,48.63
2023-11-06T07:35:19.247Z,48.71
2023-11-06T07:37:52.634Z,48.68
2023-11-06T07:40:26.010Z,48.82
2023-11-06T07:42:59.067Z,48.86
2023-11-06T07:45:31.815Z,48.95
2023-11-06T07:48:04.716Z,48.93
2023-11-06T07:50:37.909Z,48.94
2023-11-06T07:53:11.000Z,49.03
2023-11-06T07:55:43.971Z,49.09
2023-11-06T07:58:16.846Z,49.22
2023-11-06T08:00:51.216Z,49.20
2023-11-06T08:03:22.956Z,49.09
2023-11-06T08:05:55.722Z,49.10
2023-11-06T08:08:29.179Z,49.11
2023-11-06T08:11:04.765Z,49.16
2023-11-06T08:13:36.356Z,49.19
2023-11-06T08:16:10.006Z,49.22
2023-11-06T08:18:43.248Z,49.27
2023-11-06T08:21:17.121Z,49.29
2023-11-06T08:23:56.233Z,49.34
2023-11-06T08:26:29.515Z,49.30
2023-11-06T08:29:02.290Z,49.41
2023-11-06T08:31:35.910Z,49.37
2023-11-06T08:34:09.010Z,49.46
2023-11-06T08:36:42.224Z,49.49
2023-11-06T08:39:16.139Z,49.47
2023-11-06T08:41:49.055Z,49.48
2023-11-06T08:44:22.296Z,49.50
2023-11-06T08:46:55.751Z,49.51
2023-11-06T08:49:29.408Z,49.53
2023-11-06T08:52:02.158Z,49.58
2023-11-06T08:54:35.235Z,49.55
2023-11-06T08:57:08.060Z,49.60
2023-11-06T08:59:41.136Z,49.64
2023-11-06T09:02:14.001Z,49.70
2023-11-06T09:04:47.316Z,49.60
2023-11-06T09:07:20.207Z,49.58
2023-11-06T09:09:52.784Z,49.62
2023-11-06T09:12:26.357Z,49.70
2023-11-06T09:15:00.238Z,49.66
2023-11-06T09:17:33.407Z,49.71
2023-11-06T09:20:08.126Z,49.71
2023-11-06T09:22:40.297Z,49.70
2023-11-06T09:25:14.279Z,49.76
2023-11-06T09:27:48.206Z,49.76
2023-11-06T09:30:21.271Z,49.84
2023-11-06T09:32:55.879Z,49.85
2023-11-06T09:35:29.256Z,49.78
2023-11-06T09:38:04.347Z,49.88
2023-11-06T09:40:38.195Z,49.80
2023-11-06T09:43:11.107Z,49.83
2023-11-06T09:45:44.321Z,49.79
2023-11-06T09:48:18.416Z,49.85
2023-11-06T09:50:52.413Z,49.91
2023-11-06T09:53:26.185Z,49.93
2023-11-06T09:55:59.205Z,49.93
2023-11-06T09:58:32.309Z,50.00
2023-11-06T10:01:06.099Z,50.02
2023-11-06T10:03:39.757Z,50.07
2023-11-06T10:06:13.158Z,50.09
2023-11-06T10:08:46.307Z,50.08
2023-11-06T10:11:19.949Z,50.05
2023-11-06T10:13:52.291Z,50.03
2023-11-06T10:16:25.154Z,50.05
2023-11-06T10:18:58.169Z,50.07
2023-11-06T10:21:31.501Z,50.08
2023-11-06T10:24:05.321Z,50.13
2023-11-06T10:26:38.338Z,50.16
2023-11-06T10:29:11.151Z,50.15
2023-11-06T10:31:44.064Z,50.12
2023-11-06T10:34:17.466Z,50.18
2023-11-06T10:36:51.169Z,50.21
2023-11-06T10:39:24.445Z,50.17
2023-11-06T10:41:56.977Z,50.17
2023-11-06T10:44:30.491Z,50.22
2023-11-06T10:47:04.286Z,50.21
2023-11-06T10:49:37.389Z,50.25
2023-11-06T10:52:11.263Z,50.24
2023-11-06T10:54:44.355Z,50.22
2023-11-06T10:57:17.489Z,50.26
2023-11-06T10:59:51.373Z,50.36
2023-11-06T11:02:25.658Z,50.29
2023-11-06T11:04:59.234Z,50.34
2023-11-06T11:07:32.889Z,50.35
2023-11-06T11:10:06.343Z,50.41
2023-11-06T11:12:39.412Z,50.30
2023-11-06T11:15:13.273Z,50.25
2023-11-06T11:17:46.455Z,50.27
2023-11-06T11:20:20.230Z,50.26
2023-11-06T11:22:53.250Z,50.45
2023-11-06T11:25:26.908Z,50.46
2023-11-06T11:27:59.360Z,50.56
2023-11-06T11:30:32.408Z,50.46
2023-11-06T11:33:06.495Z,50.50
2023-11-06T11:35:39.354Z,50.56
2023-11-06T11:38:12.344Z,50.61
2023-11-06T11:40:45.568Z,50.58
2023-11-06T11:43:18.549Z,50.57
2023-11-06T11:45:52.346Z,50.59
2023-11-06T11:48:25.288Z,50.56
2023-11-06T11:50:58.305Z,50.59
2023-11-06T11:53:31.410Z,50.57
2023-11-06T11:56:04.463Z,50.63
2023-11-06T11:58:37.353Z,50.59
2023-11-06T12:01:10.207Z,50.56
2023-11-06T12:03:43.740Z,50.60
2023-11-06T12:06:17.375Z,50.67
2023-11-06T12:08:50.366Z,50.75
2023-11-06T12:11:23.493Z,50.83
2023-11-06T12:13:56.822Z,50.83
2023-11-06T12:16:30.569Z,50.84
2023-11-06T12:19:04.509Z,50.76
2023-11-06T12:21:37.493Z,50.84
2023-11-06T12:24:11.316Z,50.71
2023-11-06T12:26:44.383Z,50.93
2023-11-06T12:29:17.181Z,50.92
2023-11-06T12:31:50.332Z,50.98
2023-11-06T12:34:23.505Z,51.06
2023-11-06T12:36:56.585Z,50.93
2023-11-06T12:39:30.482Z,50.91
2023-11-06T12:42:04.472Z,50.96
2023-11-06T12:44:38.311Z,50.92
2023-11-06T12:47:11.429Z,51.14
2023-11-06T12:49:44.512Z,50.94
2023-11-06T12:52:17.430Z,51.04
2023-11-06T12:54:50.658Z,51.13
2023-11-06T12:57:24.561Z,51.09
2023-11-06T12:59:58.595Z,51.22
2023-11-06T13:02:32.602Z,51.25
2023-11-06T13:05:05.447Z,51.15
2023-11-06T13:07:38.470Z,51.14
2023-11-06T13:10:11.429Z,51.07
2023-11-06T13:12:44.222Z,51.20
2023-11-06T13:17:51.576Z,51.19
2023-11-06T13:20:24.642Z,51.24
2023-11-06T13:22:58.740Z,51.27
2023-11-06T13:25:32.583Z,51.29
2023-11-06T13:28:06.716Z,51.33
2023-11-06T13:30:39.601Z,51.32
2023-11-06T13:33:13.578Z,51.21
2023-11-06T13:35:46.669Z,51.21
2023-11-06T13:38:20.616Z,51.30
2023-11-06T13:40:53.729Z,51.32
2023-11-06T13:43:27.375Z,51.17
2023-11-06T13:46:00.425Z,51.16
2023-11-06T13:48:33.735Z,51.17
2023-11-06T13:51:07.508Z,51.22
2023-11-06T13:53:40.620Z,51.19
2023-11-06T13:56:13.964Z,51.21
2023-11-06T13:58:46.601Z,51.10
2023-11-06T14:01:19.476Z,51.21
2023-11-06T14:03:52.607Z,51.20
2023-11-06T14:06:25.459Z,51.19
2023-11-06T14:08:58.240Z,51.29
2023-11-06T14:11:31.734Z,51.30
2023-11-06T14:14:05.537Z,51.25
2023-11-06T14:16:38.432Z,51.24
2023-11-06T14:19:11.645Z,51.29
2023-11-06T14:21:44.508Z,51.24
2023-11-06T14:24:17.624Z,51.36
2023-11-06T14:26:50.466Z,51.37
2023-11-06T14:29:23.766Z,51.43
2023-11-06T14:32:10.240Z,51.42
2023-11-06T14:34:43.519Z,51.49
2023-11-06T14:37:16.490Z,51.49
2023-11-06T14:39:49.678Z,51.51
2023-11-06T14:42:22.566Z,51.58
2023-11-06T14:44:55.541Z,51.50
2023-11-06T14:47:28.510Z,51.46
2023-11-06T14:50:01.520Z,51.46
2023-11-06T14:52:34.652Z,51.56
2023-11-06T14:55:07.315Z,51.51
2023-11-06T14:57:40.783Z,51.55
2023-11-06T15:00:14.366Z,51.50
2023-11-06T15:02:47.923Z,51.45
2023-11-06T15:05:21.482Z,51.47
2023-11-06T15:07:54.699Z,51.45
2023-11-06T15:10:29.785Z,51.45
2023-11-06T15:13:00.421Z,51.42
2023-11-06T15:15:33.569Z,51.39
2023-11-06T15:18:06.927Z,51.56
2023-11-06T15:20:39.669Z,51.51
2023-11-06T15:23:12.331Z,51.47
2023-11-06T15:25:45.796Z,51.49
2023-11-06T15:28:19.508Z,51.48
2023-11-06T15:30:52.777Z,51.41
2023-11-06T15:33:25.703Z,51.46
2023-11-06T15:35:58.526Z,51.59
2023-11-06T15:38:31.778Z,51.68
2023-11-06T15:41:04.585Z,51.59
2023-11-06T15:43:37.695Z,51.69
2023-11-06T15:46:17.251Z,51.64
2023-11-06T15:48:43.653Z,51.69
2023-11-06T15:51:16.689Z,51.67
2023-11-06T15:53:49.673Z,51.68
2023-11-06T15:56:22.582Z,51.68
2023-11-06T15:58:55.551Z,51.67
2023-11-06T16:01:28.774Z,51.72
2023-11-06T16:04:01.676Z,51.70
2023-11-06T16:06:34.789Z,51.64
2023-11-06T16:09:07.654Z,51.72
2023-11-06T16:11:40.915Z,51.68
2023-11-06T16:14:14.474Z,51.66
2023-11-06T16:16:47.590Z,51.64
2023-11-06T16:19:20.607Z,51.58
2023-11-06T16:21:53.758Z,51.59
2023-11-06T16:24:26.859Z,51.51
2023-11-06T16:27:00.784Z,51.48
2023-11-06T16:29:33.829Z,51.50
2023-11-06T16:32:06.705Z,51.54
2023-11-06T16:34:42.603Z,51.54
2023-11-06T16:37:15.015Z,51.50
2023-11-06T16:39:45.622Z,51.52
2023-11-06T16:42:18.464Z,51.58
2023-11-06T16:44:51.734Z,51.61
2023-11-06T16:47:24.679Z,51.59
2023-11-06T16:49:57.646Z,51.65
2023-11-06T16:52:30.951Z,51.73
2023-11-06T16:55:04.909Z,51.79
2023-11-06T16:57:38.846Z,51.75
2023-11-06T17:00:11.582Z,51.77
2023-11-06T17:02:44.949Z,51.69
2023-11-06T17:05:17.518Z,51.64
2023-11-06T17:07:50.674Z,51.60
2023-11-06T17:10:23.649Z,51.52
2023-11-06T17:12:56.829Z,51.52
2023-11-06T17:15:29.775Z,51.43
2023-11-06T17:18:02.926Z,51.41
2023-11-06T17:20:36.093Z,51.41
2023-11-06T17:23:11.885Z,51.40
2023-11-06T17:25:44.884Z,51.34
2023-11-06T17:28:17.526Z,51.37
2023-11-06T17:30:50.717Z,51.40
2023-11-06T17:33:23.663Z,51.36
2023-11-06T17:35:56.736Z,51.33
2023-11-06T17:38:29.905Z,51.34
2023-11-06T17:41:02.714Z,51.39
2023-11-06T17:43:35.920Z,51.40
2023-11-06T17:46:08.736Z,51.40
2023-11-06T17:48:42.030Z,51.41
2023-11-06T17:51:14.905Z,51.43
2023-11-06T17:53:48.007Z,51.47
2023-11-06T17:56:20.583Z,51.55
2023-11-06T17:58:53.704Z,51.57
2023-11-06T18:01:26.723Z,51.59
2023-11-06T18:03:59.755Z,51.63
2023-11-06T18:06:32.789Z,51.58
2023-11-06T18:09:05.582Z,51.66
2023-11-06T18:11:38.809Z,51.69
2023-11-06T18:14:11.881Z,51.65
2023-11-06T18:16:44.890Z,51.58
2023-11-06T18:19:17.755Z,51.70
2023-11-06T18:21:52.445Z,51.67
2023-11-06T18:24:24.607Z,51.68
2023-11-06T18:26:57.701Z,51.66
2023-11-06T18:29:30.981Z,51.60
2023-11-06T18:32:03.616Z,51.64
2023-11-06T18:34:37.066Z,51.67
2023-11-06T18:37:09.929Z,51.68
2023-11-06T18:39:42.809Z,51.68
2023-11-06T18:42:16.175Z,51.70
2023-11-06T18:44:50.021Z,51.72
2023-11-06T18:47:26.827Z,51.65
2023-11-06T18:49:59.749Z,51.74
2023-11-06T18:52:33.149Z,51.68
2023-11-06T18:55:06.705Z,51.92
2023-11-06T18:57:39.878Z,51.78
2023-11-06T19:00:12.800Z,51.76
2023-11-06T19:02:45.723Z,51.72
2023-11-06T19:05:19.148Z,51.71
2023-11-06T19:07:54.318Z,51.75
2023-11-06T19:10:24.652Z,51.72
2023-11-06T19:12:57.797Z,51.74
2023-11-06T19:15:30.748Z,51.71
2023-11-06T19:18:03.837Z,51.83
2023-11-06T19:20:36.976Z,51.92
2023-11-06T19:23:09.706Z,52.09
2023-11-06T19:25:42.837Z,52.17
2023-11-06T19:28:15.872Z,52.26
2023-11-06T19:30:49.009Z,52.31
2023-11-06T19:33:22.122Z,52.31
2023-11-06T19:35:55.041Z,52.29
2023-11-06T19:38:27.969Z,52.32
2023-11-06T19:41:00.727Z,52.38
2023-11-06T19:43:34.272Z,52.35
2023-11-06T19:46:07.717Z,52.31
2023-11-06T19:48:40.917Z,52.29
2023-11-06T19:51:14.027Z,52.28
2023-11-06T19:53:47.376Z,52.23
2023-11-06T19:56:22.712Z,52.23
2023-11-06T19:58:56.036Z,52.24
2023-11-06T20:01:28.740Z,52.21
2023-11-06T20:04:02.147Z,52.14
2023-11-06T20:06:35.121Z,52.21
2023-11-06T20:09:07.787Z,52.16
2023-11-06T20:11:41.237Z,52.16
2023-11-06T20:14:14.065Z,52.15
2023-11-06T20:16:46.915Z,52.16
2023-11-06T20:19:20.094Z,52.13
2023-11-06T20:21:53.085Z,52.09
2023-11-06T20:24:25.751Z,52.14
2023-11-06T20:26:59.227Z,52.05
2023-11-06T20:29:31.974Z,52.06
2023-11-06T20:32:04.793Z,52.08
2023-11-06T20:34:37.978Z,52.08
2023-11-06T20:37:10.938Z,52.10
2023-11-06T20:39:43.873Z,52.08
2023-11-06T20:42:18.107Z,52.03
2023-11-06T20:44:49.799Z,52.05
2023-11-06T20:47:22.809Z,52.03
2023-11-06T20:49:59.926Z,51.98
2023-11-06T20:52:33.136Z,51.98
2023-11-06T20:55:06.239Z,52.01
2023-11-06T20:57:38.793Z,52.04
2023-11-06T21:00:12.133Z,51.96
2023-11-06T21:02:45.353Z,51.94
2023-11-06T21:05:20.356Z,51.94
2023-11-06T21:07:52.057Z,51.94
2023-11-06T21:10:25.124Z,51.92
2023-11-06T21:12:58.257Z,51.88
2023-11-06T21:15:31.846Z,51.93
2023-11-06T21:18:04.982Z,51.95
2023-11-06T21:20:38.423Z,51.95
2023-11-06T21:23:12.364Z,51.93
2023-11-06T21:25:46.344Z,51.94
2023-11-06T21:28:22.220Z,51.91
2023-11-06T21:30:58.842Z,51.86
2023-11-06T21:33:31.267Z,51.88
2023-11-06T21:36:03.858Z,51.87
2023-11-06T21:38:37.575Z,51.87
2023-11-06T21:41:13.149Z,51.85
2023-11-06T21:43:46.358Z,51.43
2023-11-06T21:46:19.388Z,51.17
2023-11-06T21:48:53.511Z,50.90
2023-11-06T21:51:25.927Z,50.99
2023-11-06T21:54:00.001Z,50.99
2023-11-06T21:56:33.304Z,50.79
2023-11-06T21:59:06.286Z,50.58
2023-11-06T22:01:42.383Z,50.56
2023-11-06T22:04:12.240Z,50.42
2023-11-06T22:06:45.335Z,50.26
2023-11-06T22:09:19.493Z,50.25
2023-11-06T22:11:53.368Z,49.98
2023-11-06T22:14:26.211Z,49.94
2023-11-06T22:16:59.371Z,49.88
2023-11-06T22:19:32.268Z,49.62
2023-11-06T22:22:05.150Z,49.54
2023-11-06T22:24:38.074Z,49.53
2023-11-06T22:27:10.985Z,49.49
2023-11-06T22:29:44.237Z,49.37
2023-11-06T22:32:17.427Z,49.39
2023-11-06T22:34:51.448Z,49.36
2023-11-06T22:37:25.507Z,49.32
2023-11-06T22:39:59.444Z,49.53
2023-11-06T22:42:33.217Z,49.33
2023-11-06T22:45:06.137Z,49.41
2023-11-06T22:47:39.705Z,49.61
2023-11-06T22:50:12.999Z,49.45
2023-11-06T22:53:00.655Z,49.46
2023-11-06T22:55:34.327Z,49.40
2023-11-06T22:58:07.266Z,49.53
2023-11-06T23:00:40.446Z,49.46
2023-11-06T23:03:14.174Z,49.29
2023-11-06T23:05:47.398Z,49.44
2023-11-06T23:08:20.387Z,49.32
2023-11-06T23:10:53.458Z,49.48
2023-11-06T23:13:26.210Z,49.61
2023-11-06T23:15:59.442Z,50.05
2023-11-06T23:18:33.144Z,49.71
2023-11-06T23:21:06.520Z,49.86
2023-11-06T23:23:40.504Z,49.97
2023-11-06T23:26:13.409Z,49.91
2023-11-06T23:28:46.433Z,49.89
2023-11-06T23:31:19.528Z,49.53
2023-11-06T23:33:53.586Z,49.71
2023-11-06T23:36:26.310Z,49.80
2023-11-06T23:38:59.599Z,49.75
2023-11-06T23:41:40.793Z,49.50
2023-11-06T23:44:06.678Z,49.51
2023-11-06T23:46:40.353Z,49.62
2023-11-06T23:49:13.408Z,49.70
2023-11-06T23:51:46.443Z,49.58
2023-11-06T23:54:19.515Z,49.55
2023-11-06T23:56:53.516Z,49.57
2023-11-06T23:59:26.492Z,49.47
